Impacts METAR Board
IDs:

KLGA - New York/La Guardia, NY, US

Updated at: 2000 UTC 22 Jun 2018
Potential Impact None Slight Moderate High
Time 22/08Z 22/09Z 22/10Z 22/11Z 22/12Z 22/13Z 22/14Z 22/15Z 22/16Z 22/17Z 22/18Z 22/19Z 22/20Z
Temp69 68 68 68 68 69 71 71 70 69 73 74 74
Dewpt64 63 62 62 55 53 56 57 59 59 59 59 59
Altim29.90 29.93 29.95 29.97 29.98 29.99 30.00 30.00 30.02 30.03 30.01 30.01 30.00
VIS10 10 10 10 10 10 10 10 10 10 10 10 10
CIG250 10 11 10 90 90 90 90 50 21 23 180 180
CoverBKNBKNBKNBKNBKNBKNBKNBKNBKNOVCBKNBKNBKN
FltCatVFRMVFRMVFRMVFRVFRVFRVFRVFRVFRMVFRMVFRVFRVFR
WX--------------------------
WDir70609050604040504050120130130
WSpd8 8 6 9 13 11 14 13 11 11 8 10 9
WGst-- -- -- -- -- -- -- -- -- -- -- 15 --
Raw hourly METARs
KLGA 220751Z COR 07008KT 10SM FEW010 SCT070 BKN250 21/18 A2990 RMK AO2 SLP124 T02060178
KLGA 220851Z 06008KT 10SM BKN010 BKN250 20/17 A2993 RMK AO2 SLP133 T02000172 53017
KLGA 220951Z 09006KT 10SM BKN011 BKN041 BKN250 20/17 A2995 RMK AO2 SLP140 T02000167
KLGA 221051Z 05009KT 10SM BKN010 BKN015 BKN045 BKN190 BKN250 20/17 A2997 RMK AO2 SLP148 T02000167
KLGA 221151Z 06013KT 10SM FEW010 SCT050 BKN090 BKN170 BKN250 20/13 A2998 RMK AO2 SLP152 T02000128 10217 20194 51019
KLGA 221251Z 04011KT 10SM FEW015 SCT055 BKN090 BKN170 BKN250 21/12 A2999 RMK AO2 SLP155 T02060117
KLGA 221351Z 04014KT 10SM FEW011 SCT050 BKN090 BKN170 BKN250 22/13 A3000 RMK AO2 SLP158 T02170133
KLGA 221451Z 05013KT 10SM FEW010 SCT045 BKN090 BKN190 BKN250 22/14 A3000 RMK AO2 SLP159 T02170139 51007
KLGA 221551Z 04011KT 10SM FEW010 FEW028 BKN050 BKN190 BKN250 21/15 A3002 RMK AO2 SLP164 T02110150
KLGA 221651Z 05011KT 10SM FEW010 BKN021 BKN050 OVC190 21/15 A3003 RMK AO2 SLP167 T02060150
KLGA 221751Z 12008KT 10SM FEW010 BKN023 BKN050 BKN190 BKN250 23/15 A3001 RMK AO2 SLP163 T02280150 10233 20200 50003
KLGA 221851Z 13010G15KT 10SM FEW028 BKN180 BKN250 23/15 A3001 RMK AO2 SLP162 T02330150
KLGA 221951Z 13009KT 10SM FEW028 BKN180 BKN250 23/15 A3000 RMK AO2 SLP160 T02330150



Page loaded:  20:54 UTC  |   01:54 PM Pacific  |   02:54 PM Mountain  |   03:54 PM Central  |   04:54 PM Eastern

 

ADVISORIES

FORECASTS

FORECASTS

OBSERVATIONS

USER TOOLS

ABOUT US